EBAW/ANR METAR and TAF weather

Enter ICAO airport designator
Station Type Date Time Source
EBAW METAR 2018/01/22 11:20 UTC NOAA

EBAW 221120Z 30008KT 9999 SCT016 BKN041 09/07 Q1009 NOSIG


Station Type Date Time Source
EBAW Decoded METAR 2018/01/22 11:20 UTC NOAA

Antwerpen / Deurne, Belgium (EBAW) 51-12N 004-28E 14M
Jan 22, 2018 - 06:20 AM EST / 2018.01.22 1120 UTC
Wind: from the WNW (300 degrees) at 9 MPH (8 KT):0
Visibility: greater than 7 mile(s):0
Sky conditions: mostly cloudy
Temperature: 48 F (9 C)
Dew Point: 44 F (7 C)
Relative Humidity: 87%
Pressure (altimeter): 29.80 in. Hg (1009 hPa)
ob: EBAW 221120Z 30008KT 9999 SCT016 BKN041 09/07 Q1009 NOSIG
cycle: 11

Station Type Date Time Source
EBAW TAF 2017/09/10 00:27 UTC NOAA

TAF TAF EBAW 102310Z 1100/1112 22015G25KT 9999 SCT015 BKN020 PROB30
TEMPO 1100/1101 4000 RA BKN012 PROB40
TEMPO 1111/1112 21020G35KT 1500 +SHRA TSRA SCT008 BKN012CB


Example: see airport list